Polar Ranger — WDC8652 — position and weather

sailwx.info

Track history (hours):
 
Tides and Currents Weather Stations Pressure Air Temp Water Temp Dewpoint Dewpoint Depression Visibility Wind Speed Wind Dir Waves Ship Positions

Polar Ranger

Owner: Dunlap Towing Co., LaConner, WA. More information available from US FCC via Universal Licensing System and Coast Guard Vessel Documentation Center.

Last reported at 2015-Mar-26 19:24 UTC. Time now 2015-Apr-01 14:29 UTC.
Position N 47°59' W 122°13'.

Type: Tow > 200 m length. MMSI: 367090860.

Date/timePositionNaut miles runAvg speedWind from/ knotsBaromVisibWave heightAir tempDewpointWater temp
2015-Mar-26 19:24N 47°59' W 122°13'7 7.8
2015-Mar-26 18:34N 47°55' W 122°20'1413.5
2015-Mar-26 17:33N 47°42' W 122°26'413.0
2015-Mar-26 17:13N 47°37' W 122°25'1 1.3
2015-Mar-26 16:33N 47°37' W 122°24'1 3.9
2015-Mar-26 16:16N 47°37' W 122°25'5 6.9
2015-Mar-26 15:33N 47°42' W 122°28'0 6.9
2015-Mar-26 15:31N 47°42' W 122°28'8 8.6
2015-Mar-26 14:33N 47°50' W 122°28'0 7.3
2015-Mar-26 14:31N 47°51' W 122°29'8 8.7
2015-Mar-26 13:33N 47°58' W 122°36'17 8.3
2015-Mar-26 11:31N 48°11' W 122°51'8 8.4
2015-Mar-26 10:33N 48°12' W 123°03'9 8.8
2015-Mar-26 09:33N 48°12' W 123°16'9 8.6
2015-Mar-26 08:33N 48°12' W 123°29'10 9.7
2015-Mar-26 07:33N 48°12' W 123°44'8 8.0
2015-Mar-26 06:33N 48°12' W 123°56'9 8.5
2015-Mar-26 05:32N 48°16' W 124°08'9 9.0
2015-Mar-26 04:33N 48°20' W 124°20'1111.2
2015-Mar-26 03:33N 48°24' W 124°35'1010.0
2015-Mar-26 02:32N 48°26' W 124°50'8 7.7
2015-Mar-26 01:33N 48°23' W 125°00'  
Track history (hours):
 
Tides and Currents Weather Stations Pressure Air Temp Water Temp Dewpoint Dewpoint Depression Visibility Wind Speed Wind Dir Waves Ship Positions

Polar Ranger

Owner: Dunlap Towing Co., LaConner, WA. More information available from US FCC via Universal Licensing System and Coast Guard Vessel Documentation Center.

Last reported at 2015-Mar-26 19:24 UTC. Time now 2015-Apr-01 14:29 UTC.
Position N 47°59' W 122°13'.

Type: Tow > 200 m length. MMSI: 367090860.

Date/timePositionNaut miles runAvg speedWind from/ knotsBaromVisibWave heightAir tempDewpointWater temp
2015-Mar-26 19:24N 47°59' W 122°13'7 7.8
2015-Mar-26 18:34N 47°55' W 122°20'1413.5
2015-Mar-26 17:33N 47°42' W 122°26'413.0
2015-Mar-26 17:13N 47°37' W 122°25'1 1.3
2015-Mar-26 16:33N 47°37' W 122°24'1 3.9
2015-Mar-26 16:16N 47°37' W 122°25'5 6.9
2015-Mar-26 15:33N 47°42' W 122°28'0 6.9
2015-Mar-26 15:31N 47°42' W 122°28'8 8.6
2015-Mar-26 14:33N 47°50' W 122°28'0 7.3
2015-Mar-26 14:31N 47°51' W 122°29'8 8.7
2015-Mar-26 13:33N 47°58' W 122°36'17 8.3
2015-Mar-26 11:31N 48°11' W 122°51'8 8.4
2015-Mar-26 10:33N 48°12' W 123°03'9 8.8
2015-Mar-26 09:33N 48°12' W 123°16'9 8.6
2015-Mar-26 08:33N 48°12' W 123°29'10 9.7
2015-Mar-26 07:33N 48°12' W 123°44'8 8.0
2015-Mar-26 06:33N 48°12' W 123°56'9 8.5
2015-Mar-26 05:32N 48°16' W 124°08'9 9.0
2015-Mar-26 04:33N 48°20' W 124°20'1111.2
2015-Mar-26 03:33N 48°24' W 124°35'1010.0
2015-Mar-26 02:32N 48°26' W 124°50'8 7.7
2015-Mar-26 01:33N 48°23' W 125°00'  

Dump ship's entire track history